出雲空港の過去48時間の天気

出雲空港 (Izumo)

現在時刻: 5/28 14:04 JST (5/28 05:04 UTC) 以下の時間は現地時間です。

過去48時間のMETAR気象情報
時間 風向 風速(m/s) 視程 気温(℃) 湿度(%) 気圧(hPa) 天気現象
28 13:00 西南西 5 10km以上 25 32 1008
28 12:00 西 3 10km以上 24 36 1008
28 11:00 北北東 3 10km以上 24 44 1008
28 10:00 北北西 2 10km以上 21 53 1009
28 09:00 北北西 2 10km以上 19 64 1009
28 08:00 2 10km以上 17 72 1009
28 07:00 3 10km以上 14 88 1009
28 06:30 4 10km以上 13 94 1009
27 20:00 北西 3 10km以上 18 68 1008
27 19:00 北北西 3 10km以上 19 64 1007
27 18:00 北北西 5 10km以上 20 64 1007
27 17:00 北北西 6 10km以上 21 53 1007
27 16:00 北北西 5 10km以上 22 57 1007
27 15:00 北北西 5 10km以上 22 60 1007
27 14:00 北西 5 10km以上 22 60 1007
27 13:00 北北西 6 10km以上 21 64 1007
27 12:00 西北西 6 10km以上 21 64 1007
27 11:00 西北西 6 10km以上 21 69 1007
27 10:00 西南西 8 10km以上 21 73 1007
27 09:00 西 7 10km以上 19 83 1007 弱いしゅう雨
27 08:00 西南西 10 10km以上 20 73 1007
27 07:00 西南西 9 10km以上 19 68 1006
27 06:30 西南西 6 10km以上 18 68 1006
RJOC 280400Z 25010KT 9999 FEW030 25/07 Q1008
RJOC 280300Z 27006KT 190V330 9999 FEW035 24/08 Q1008
RJOC 280200Z 02006KT 9999 FEW040 BKN/// 24/11 Q1008
RJOC 280100Z 34003KT 270V040 9999 FEW040 BKN/// 21/11 Q1009
RJOC 280000Z 33003KT 9999 FEW030 19/12 Q1009
RJOC 272300Z 18003KT 110V250 CAVOK 17/12 Q1009
RJOC 272200Z 19005KT CAVOK 14/12 Q1009
RJOC 272130Z 19007KT CAVOK 13/12 Q1009
RJOC 271100Z 32005KT 9999 FEW040 BKN/// 18/12 Q1008
RJOC 271000Z 33006KT 9999 FEW040 BKN/// 19/12 Q1007
RJOC 270900Z 33009KT 9999 FEW040 BKN/// 20/13 Q1007
RJOC 270800Z 33011KT 9999 FEW030 BKN/// 21/11 Q1007
RJOC 270700Z 33010KT 9999 FEW030 BKN/// 22/13 Q1007
RJOC 270600Z 33009KT 9999 FEW030 BKN/// 22/14 Q1007
RJOC 270500Z 32010KT 9999 FEW025 SCT035 BKN/// 22/14 Q1007
RJOC 270400Z 33012KT 9999 FEW025 SCT030 BKN/// 21/14 Q1007
RJOC 270300Z 30012KT 9999 FEW025 BKN030 21/14 Q1007
RJOC 270200Z 29012KT 9999 FEW020 SCT025 21/15 Q1007
RJOC 270100Z 25015KT 9999 FEW020 BKN040 21/16 Q1007
RJOC 270000Z 26014KT 9999 -SHRA FEW015 SCT020 BKN040 19/16 Q1007
RJOC 262300Z 25019KT 9999 FEW040 20/15 Q1007
RJOC 262200Z 24017KT 9999 FEW040 19/13 Q1006
RJOC 262130Z 24011KT 9999 FEW025 18/12 Q1006